Friday, April 18, 2014, 8:09 PM EDT

KSEG, Selinsgrove Penn Valley Airport

Location: Selinsgrove, PA, United States Lat: 40.817
Local Time: 8:09 PM EDT ( 0:09 GMT) Lon: -76.867
Time Zone: US/Eastern Elev: 449 ft

Show me the last for .
Show Decoded

2014-04-18 19:53 METAR KSEG 182353Z AUTO 17004KT 10SM CLR 10/01 A3026 RMK AO2 SLP249 T01000006
                 10128 20100 56014 TSNO =
2014-04-18 18:53 METAR KSEG 182253Z AUTO VRB05KT 10SM CLR 12/00 A3028 RMK AO2 SLP255 T01170000
                 TSNO =
2014-04-18 17:53 METAR KSEG 182153Z AUTO 21006KT 10SM CLR 12/00 A3028 RMK AO2 SLP257 T01220000
                 TSNO =
2014-04-18 16:53 METAR KSEG 182053Z AUTO 20006KT 10SM CLR 12/00 A3030 RMK AO2 SLP264 T01220000
                 56027 TSNO =
2014-04-18 15:53 METAR KSEG 181953Z AUTO 21006KT 10SM CLR 12/00 A3032 RMK AO2 SLP269 T01220000
                 TSNO =
2014-04-18 14:53 METAR KSEG 181853Z AUTO 16007KT 10SM CLR 11/00 A3036 RMK AO2 SLP282 T01110000
                 TSNO =
2014-04-18 13:53 METAR KSEG 181753Z AUTO 15010KT 10SM CLR 10/M01 A3038 RMK AO2 SLP291 T01001011
                 10106 20028 58026 TSNO =
2014-04-18 12:53 METAR KSEG 181653Z AUTO 15007KT 10SM CLR 09/M01 A3042 RMK AO2 SLP303 T00891011
                 TSNO =
2014-04-18 11:53 METAR KSEG 181553Z AUTO 23007KT 10SM CLR 07/M02 A3045 RMK AO2 SLP314 T00721017
                 TSNO =
2014-04-18 10:53 METAR KSEG 181453Z AUTO 22006KT 10SM CLR 06/M02 A3046 RMK AO2 SLP318 T00611017
                 56015 TSNO =
2014-04-18 09:53 METAR KSEG 181353Z AUTO 17006KT 10SM CLR 05/M02 A3047 RMK AO2 SLP321 T00501017
                 TSNO =
2014-04-18 08:53 METAR KSEG 181253Z AUTO 15007KT 10SM CLR 03/M02 A3050 RMK AO2 SLP330 T00331017
                 TSNO =
2014-04-18 07:53 METAR KSEG 181153Z AUTO 18006KT 10SM CLR 03/M02 A3051 RMK AO2 SLP333 7////
                 T00281017 10050 20006 53003 TSNO =
2014-04-18 06:53 METAR KSEG 181053Z AUTO 17005KT 10SM CLR 02/M02 A3050 RMK AO2 SLP332 T00171022
                 TSNO =
2014-04-18 05:53 METAR KSEG 180953Z AUTO 15004KT 10SM CLR 02/M03 A3048 RMK AO2 SLP325 T00171028
                 TSNO =
2014-04-18 04:53 METAR KSEG 180853Z AUTO 15004KT 10SM CLR 02/M03 A3050 RMK AO2 SLP330 T00171028
                 55015 TSNO =
2014-04-18 03:53 METAR KSEG 180753Z AUTO 15004KT 10SM CLR 03/M02 A3049 RMK AO2 SLP325 T00281022
                 TSNO =
2014-04-18 02:53 METAR KSEG 180653Z AUTO 13005KT 10SM CLR 03/M02 A3050 RMK AO2 SLP329 T00331022
                 TSNO =
2014-04-18 01:53 METAR KSEG 180553Z AUTO 15010KT 10SM CLR 05/M02 A3054 RMK AO2 SLP345 T00501022
                 10100 20050 58001 TSNO =
2014-04-18 00:53 METAR KSEG 180453Z AUTO 15008KT 10SM OVC038 06/M02 A3059 RMK AO2 SLP359
                 T00561017 401331039 TSNO =
2014-04-17 23:53 METAR KSEG 180353Z AUTO 15008KT 10SM BKN040 06/M02 A3055 RMK AO2 SLP347
                 T00561017 TSNO =
2014-04-17 22:53 METAR KSEG 180253Z AUTO 14009KT 10SM CLR 07/M02 A3055 RMK AO2 SLPNO T00671017
                 53007 TSNO =
2014-04-17 21:53 METAR KSEG 180153Z AUTO 14010KT 10SM CLR 08/M02 A3054 RMK AO2 SLP343 T00831017
                 TSNO =
2014-04-17 20:53 METAR KSEG 180053Z AUTO 17006KT 10SM CLR 08/M02 A3053 RMK AO2 SLP342 T00831017
                 TSNO =

Support USWX by starting your Amazon purchase here.